Wagon Mound, New Mexico
Current Conditions -  °F | °C
As of 8:53 PM on Saturday 20 Dec 2014 (Local Time) from KLVS Reporting Station
Clear Clear  
Wind Chill: 25°   Ceiling: Unl
Heat Index: 32°   Visibility: 10mi
Dew Point: 16°   Wind: 8mph
Humidity: 52%   Direction: 150°SSE
Pressure: 29.98"   Gusts: NA
Location:  36.01°N, 104.71°W
Report Text: KLVS 210353Z AUTO 15007KT 10SM CLR 00/M09 A2998 RMK AO2 SLP135 T00001089
Loading
Personal Weather Stations






























Interactive Weather Map New forecast layout! Learn more

10-Day Weather Forecast

Advertisements
Track Severe Weather on mobile